sensor_id;sensor_type;location;lat;lon;timestamp;pressure;altitude;pressure_sealevel;temperature;humidity
20023;BME280;10172;42.054;24.546;2022-07-21T00:00:28;98203.38;;;21.65;62.22
20023;BME280;10172;42.054;24.546;2022-07-21T00:02:55;98213.28;;;21.81;61.96
20023;BME280;10172;42.054;24.546;2022-07-21T00:05:22;98202.03;;;22.00;61.30
20023;BME280;10172;42.054;24.546;2022-07-21T00:07:48;98201.84;;;22.01;60.64
20023;BME280;10172;42.054;24.546;2022-07-21T00:10:14;98193.00;;;21.22;63.67
20023;BME280;10172;42.054;24.546;2022-07-21T00:12:40;98196.88;;;21.27;63.66
20023;BME280;10172;42.054;24.546;2022-07-21T00:15:06;98200.91;;;21.31;64.17
20023;BME280;10172;42.054;24.546;2022-07-21T00:17:32;98188.78;;;21.27;63.53
20023;BME280;10172;42.054;24.546;2022-07-21T00:19:58;98203.31;;;21.26;63.62
20023;BME280;10172;42.054;24.546;2022-07-21T00:22:24;98196.16;;;21.41;62.65
20023;BME280;10172;42.054;24.546;2022-07-21T00:24:49;98193.75;;;21.46;62.53
20023;BME280;10172;42.054;24.546;2022-07-21T00:27:15;98188.31;;;21.63;61.74
20023;BME280;10172;42.054;24.546;2022-07-21T00:29:40;98185.47;;;21.48;62.23
20023;BME280;10172;42.054;24.546;2022-07-21T00:32:06;98189.16;;;22.02;60.42
20023;BME280;10172;42.054;24.546;2022-07-21T00:34:32;98189.06;;;21.79;60.83
20023;BME280;10172;42.054;24.546;2022-07-21T00:36:58;98186.50;;;21.47;62.32
20023;BME280;10172;42.054;24.546;2022-07-21T00:39:23;98184.34;;;21.34;63.43
20023;BME280;10172;42.054;24.546;2022-07-21T00:41:49;98175.88;;;21.76;61.53
20023;BME280;10172;42.054;24.546;2022-07-21T00:44:26;98187.63;;;21.61;61.60
20023;BME280;10172;42.054;24.546;2022-07-21T00:46:53;98180.03;;;22.03;60.20
20023;BME280;10172;42.054;24.546;2022-07-21T00:49:20;98189.06;;;21.79;61.15
20023;BME280;10172;42.054;24.546;2022-07-21T00:51:46;98187.94;;;21.66;62.13
20023;BME280;10172;42.054;24.546;2022-07-21T00:54:14;98186.88;;;21.28;63.33
20023;BME280;10172;42.054;24.546;2022-07-21T00:56:41;98177.41;;;21.79;61.46
20023;BME280;10172;42.054;24.546;2022-07-21T00:59:07;98195.63;;;21.85;61.43
20023;BME280;10172;42.054;24.546;2022-07-21T01:01:32;98184.88;;;21.69;62.24
20023;BME280;10172;42.054;24.546;2022-07-21T01:03:58;98191.16;;;22.08;60.73
20023;BME280;10172;42.054;24.546;2022-07-21T01:06:24;98191.81;;;23.01;57.14
20023;BME280;10172;42.054;24.546;2022-07-21T01:08:53;98185.28;;;22.50;58.17
20023;BME280;10172;42.054;24.546;2022-07-21T01:11:20;98178.56;;;23.20;56.36
20023;BME280;10172;42.054;24.546;2022-07-21T01:13:47;98195.38;;;21.72;61.61
20023;BME280;10172;42.054;24.546;2022-07-21T01:16:14;98181.69;;;22.04;60.44
20023;BME280;10172;42.054;24.546;2022-07-21T01:18:40;98174.50;;;22.19;59.40
20023;BME280;10172;42.054;24.546;2022-07-21T01:23:53;98173.56;;;21.18;63.41
20023;BME280;10172;42.054;24.546;2022-07-21T01:26:19;98169.50;;;21.06;64.09
20023;BME280;10172;42.054;24.546;2022-07-21T01:28:44;98164.31;;;21.60;61.53
20023;BME280;10172;42.054;24.546;2022-07-21T01:31:11;98160.41;;;20.91;64.49
20023;BME280;10172;42.054;24.546;2022-07-21T01:33:36;98160.03;;;21.26;62.75
20023;BME280;10172;42.054;24.546;2022-07-21T01:36:02;98166.06;;;21.36;62.21
20023;BME280;10172;42.054;24.546;2022-07-21T01:38:27;98162.34;;;21.37;62.57
20023;BME280;10172;42.054;24.546;2022-07-21T01:41:11;98167.97;;;21.67;61.28
20023;BME280;10172;42.054;24.546;2022-07-21T01:44:00;98167.50;;;22.02;59.60
20023;BME280;10172;42.054;24.546;2022-07-21T01:46:27;98165.66;;;21.56;61.06
20023;BME280;10172;42.054;24.546;2022-07-21T01:48:53;98164.78;;;21.16;63.21
20023;BME280;10172;42.054;24.546;2022-07-21T01:51:19;98166.28;;;21.66;60.80
20023;BME280;10172;42.054;24.546;2022-07-21T01:53:44;98164.88;;;22.39;58.17
20023;BME280;10172;42.054;24.546;2022-07-21T01:56:09;98168.97;;;22.81;57.06
20023;BME280;10172;42.054;24.546;2022-07-21T01:58:35;98168.84;;;22.29;57.81
20023;BME280;10172;42.054;24.546;2022-07-21T02:01:01;98176.50;;;23.08;55.42
20023;BME280;10172;42.054;24.546;2022-07-21T02:03:26;98169.53;;;23.43;54.18
20023;BME280;10172;42.054;24.546;2022-07-21T02:05:52;98172.50;;;23.77;53.28
20023;BME280;10172;42.054;24.546;2022-07-21T02:08:17;98172.97;;;23.95;52.34
20023;BME280;10172;42.054;24.546;2022-07-21T02:10:43;98170.72;;;23.26;54.43
20023;BME280;10172;42.054;24.546;2022-07-21T02:13:08;98171.44;;;23.05;55.00
20023;BME280;10172;42.054;24.546;2022-07-21T02:15:34;98179.03;;;22.72;56.05
20023;BME280;10172;42.054;24.546;2022-07-21T02:17:59;98171.63;;;23.18;54.99
20023;BME280;10172;42.054;24.546;2022-07-21T02:20:25;98176.53;;;23.66;53.78
20023;BME280;10172;42.054;24.546;2022-07-21T02:22:52;98176.38;;;22.87;55.39
20023;BME280;10172;42.054;24.546;2022-07-21T02:25:18;98171.09;;;22.17;57.74
20023;BME280;10172;42.054;24.546;2022-07-21T02:27:44;98170.25;;;21.94;59.28
20023;BME280;10172;42.054;24.546;2022-07-21T02:30:11;98164.53;;;21.81;59.72
20023;BME280;10172;42.054;24.546;2022-07-21T02:32:37;98171.34;;;21.69;59.70
20023;BME280;10172;42.054;24.546;2022-07-21T02:35:03;98170.94;;;21.88;59.16
20023;BME280;10172;42.054;24.546;2022-07-21T02:37:29;98161.38;;;22.08;57.98
20023;BME280;10172;42.054;24.546;2022-07-21T02:39:54;98173.41;;;21.67;59.76
20023;BME280;10172;42.054;24.546;2022-07-21T02:42:20;98165.78;;;21.70;59.26
20023;BME280;10172;42.054;24.546;2022-07-21T02:44:46;98148.19;;;22.50;56.74
20023;BME280;10172;42.054;24.546;2022-07-21T02:47:11;98171.47;;;21.36;60.74
20023;BME280;10172;42.054;24.546;2022-07-21T02:49:37;98158.72;;;22.00;58.36
20023;BME280;10172;42.054;24.546;2022-07-21T02:52:04;98175.09;;;21.21;61.22
20023;BME280;10172;42.054;24.546;2022-07-21T02:54:29;98162.06;;;21.24;61.67
20023;BME280;10172;42.054;24.546;2022-07-21T02:56:54;98171.72;;;22.04;58.55
20023;BME280;10172;42.054;24.546;2022-07-21T02:59:20;98173.25;;;20.97;62.24
20023;BME280;10172;42.054;24.546;2022-07-21T03:01:46;98155.69;;;20.77;63.42
20023;BME280;10172;42.054;24.546;2022-07-21T03:04:11;98150.94;;;20.79;63.27
20023;BME280;10172;42.054;24.546;2022-07-21T03:06:37;98168.31;;;21.33;60.83
20023;BME280;10172;42.054;24.546;2022-07-21T03:09:03;98163.69;;;21.33;60.44
20023;BME280;10172;42.054;24.546;2022-07-21T03:11:29;98163.06;;;21.70;59.51
20023;BME280;10172;42.054;24.546;2022-07-21T03:13:54;98171.69;;;21.66;59.04
20023;BME280;10172;42.054;24.546;2022-07-21T03:16:19;98167.19;;;21.50;59.89
20023;BME280;10172;42.054;24.546;2022-07-21T03:18:45;98170.09;;;21.79;59.08
20023;BME280;10172;42.054;24.546;2022-07-21T03:21:10;98180.69;;;21.58;60.02
20023;BME280;10172;42.054;24.546;2022-07-21T03:23:36;98180.63;;;21.35;60.82
20023;BME280;10172;42.054;24.546;2022-07-21T03:26:02;98178.03;;;21.50;59.96
20023;BME280;10172;42.054;24.546;2022-07-21T03:28:27;98174.78;;;20.92;63.07
20023;BME280;10172;42.054;24.546;2022-07-21T03:30:53;98180.53;;;20.56;64.91
20023;BME280;10172;42.054;24.546;2022-07-21T03:33:18;98175.13;;;20.56;65.40
20023;BME280;10172;42.054;24.546;2022-07-21T03:35:43;98174.09;;;20.25;67.67
20023;BME280;10172;42.054;24.546;2022-07-21T03:38:09;98171.22;;;20.26;67.56
20023;BME280;10172;42.054;24.546;2022-07-21T03:40:36;98185.09;;;20.64;66.45
20023;BME280;10172;42.054;24.546;2022-07-21T03:43:04;98174.09;;;20.49;66.91
20023;BME280;10172;42.054;24.546;2022-07-21T03:45:31;98173.44;;;20.39;68.25
20023;BME280;10172;42.054;24.546;2022-07-21T03:47:59;98181.88;;;20.36;68.42
20023;BME280;10172;42.054;24.546;2022-07-21T03:50:25;98172.75;;;20.77;66.37
20023;BME280;10172;42.054;24.546;2022-07-21T03:52:51;98178.84;;;20.71;67.18
20023;BME280;10172;42.054;24.546;2022-07-21T03:55:17;98167.03;;;20.72;67.34
20023;BME280;10172;42.054;24.546;2022-07-21T03:57:55;98177.00;;;20.56;68.85
20023;BME280;10172;42.054;24.546;2022-07-21T04:00:32;98180.25;;;21.38;65.73
20023;BME280;10172;42.054;24.546;2022-07-21T04:02:58;98182.13;;;21.46;64.96
20023;BME280;10172;42.054;24.546;2022-07-21T04:05:25;98184.78;;;21.54;64.61
20023;BME280;10172;42.054;24.546;2022-07-21T04:07:51;98183.91;;;21.62;63.87
20023;BME280;10172;42.054;24.546;2022-07-21T04:10:19;98187.06;;;21.34;65.61
20023;BME280;10172;42.054;24.546;2022-07-21T04:12:46;98179.66;;;21.12;67.41
20023;BME280;10172;42.054;24.546;2022-07-21T04:15:11;98174.59;;;21.09;68.53
20023;BME280;10172;42.054;24.546;2022-07-21T04:17:38;98164.09;;;21.06;68.85
20023;BME280;10172;42.054;24.546;2022-07-21T04:20:04;98172.50;;;21.43;67.25
20023;BME280;10172;42.054;24.546;2022-07-21T04:22:31;98176.47;;;21.56;67.78
20023;BME280;10172;42.054;24.546;2022-07-21T04:24:57;98165.97;;;21.14;70.04
20023;BME280;10172;42.054;24.546;2022-07-21T04:27:22;98156.16;;;21.13;69.51
20023;BME280;10172;42.054;24.546;2022-07-21T04:29:47;98173.22;;;21.68;67.27
20023;BME280;10172;42.054;24.546;2022-07-21T04:32:13;98181.44;;;21.91;66.15
20023;BME280;10172;42.054;24.546;2022-07-21T04:34:39;98155.53;;;22.19;64.96
20023;BME280;10172;42.054;24.546;2022-07-21T04:37:04;98159.31;;;22.10;65.74
20023;BME280;10172;42.054;24.546;2022-07-21T04:39:30;98161.72;;;22.05;67.03
20023;BME280;10172;42.054;24.546;2022-07-21T04:41:55;98159.78;;;21.83;68.98
20023;BME280;10172;42.054;24.546;2022-07-21T04:44:21;98152.84;;;21.80;69.87
20023;BME280;10172;42.054;24.546;2022-07-21T04:46:46;98157.25;;;22.12;68.32
20023;BME280;10172;42.054;24.546;2022-07-21T04:49:12;98155.81;;;22.47;66.64
20023;BME280;10172;42.054;24.546;2022-07-21T04:51:37;98150.97;;;23.02;64.29
20023;BME280;10172;42.054;24.546;2022-07-21T04:54:03;98160.22;;;23.08;64.67
20023;BME280;10172;42.054;24.546;2022-07-21T04:56:28;98157.44;;;23.16;63.80
20023;BME280;10172;42.054;24.546;2022-07-21T04:58:54;98159.69;;;23.27;63.79
20023;BME280;10172;42.054;24.546;2022-07-21T05:01:19;98164.09;;;23.43;64.40
20023;BME280;10172;42.054;24.546;2022-07-21T05:03:45;98158.69;;;23.57;63.69
20023;BME280;10172;42.054;24.546;2022-07-21T05:06:11;98167.28;;;23.61;67.24
20023;BME280;10172;42.054;24.546;2022-07-21T05:08:36;98170.69;;;23.99;65.64
20023;BME280;10172;42.054;24.546;2022-07-21T05:11:02;98169.28;;;24.03;65.31
20023;BME280;10172;42.054;24.546;2022-07-21T05:13:27;98174.66;;;23.82;66.98
20023;BME280;10172;42.054;24.546;2022-07-21T05:15:53;98164.47;;;24.05;65.91
20023;BME280;10172;42.054;24.546;2022-07-21T05:18:18;98168.56;;;24.30;64.30
20023;BME280;10172;42.054;24.546;2022-07-21T05:20:44;98169.78;;;24.70;63.09
20023;BME280;10172;42.054;24.546;2022-07-21T05:23:09;98172.38;;;24.78;62.60
20023;BME280;10172;42.054;24.546;2022-07-21T05:25:34;98174.16;;;25.41;59.68
20023;BME280;10172;42.054;24.546;2022-07-21T05:28:01;98170.66;;;25.19;61.76
20023;BME280;10172;42.054;24.546;2022-07-21T05:30:27;98171.47;;;25.82;57.63
20023;BME280;10172;42.054;24.546;2022-07-21T05:32:52;98167.75;;;25.96;58.38
20023;BME280;10172;42.054;24.546;2022-07-21T05:35:17;98177.16;;;26.47;56.41
20023;BME280;10172;42.054;24.546;2022-07-21T05:37:43;98175.72;;;26.71;55.76
20023;BME280;10172;42.054;24.546;2022-07-21T05:40:10;98175.91;;;26.63;55.81
20023;BME280;10172;42.054;24.546;2022-07-21T05:42:36;98180.19;;;27.05;54.39
20023;BME280;10172;42.054;24.546;2022-07-21T05:45:02;98184.34;;;27.33;52.69
20023;BME280;10172;42.054;24.546;2022-07-21T05:47:28;98176.34;;;27.39;52.35
20023;BME280;10172;42.054;24.546;2022-07-21T05:49:54;98174.47;;;27.59;51.54
20023;BME280;10172;42.054;24.546;2022-07-21T05:52:20;98175.50;;;27.58;48.64
20023;BME280;10172;42.054;24.546;2022-07-21T05:54:45;98178.78;;;27.86;49.83
20023;BME280;10172;42.054;24.546;2022-07-21T05:57:11;98174.56;;;28.03;50.02
20023;BME280;10172;42.054;24.546;2022-07-21T05:59:36;98176.13;;;28.30;49.93
20023;BME280;10172;42.054;24.546;2022-07-21T06:02:02;98171.69;;;28.61;51.00
20023;BME280;10172;42.054;24.546;2022-07-21T06:04:27;98174.13;;;28.82;52.23
20023;BME280;10172;42.054;24.546;2022-07-21T06:06:53;98179.31;;;29.15;48.01
20023;BME280;10172;42.054;24.546;2022-07-21T06:09:19;98175.31;;;28.92;44.54
20023;BME280;10172;42.054;24.546;2022-07-21T06:11:45;98174.94;;;28.51;43.54
20023;BME280;10172;42.054;24.546;2022-07-21T06:14:10;98179.78;;;28.49;42.15
20023;BME280;10172;42.054;24.546;2022-07-21T06:16:36;98176.59;;;28.90;42.58
20023;BME280;10172;42.054;24.546;2022-07-21T06:19:02;98176.72;;;29.26;37.99
20023;BME280;10172;42.054;24.546;2022-07-21T06:21:27;98182.75;;;29.35;42.37
20023;BME280;10172;42.054;24.546;2022-07-21T06:23:53;98183.75;;;29.83;38.64
20023;BME280;10172;42.054;24.546;2022-07-21T06:26:19;98182.13;;;30.12;38.04
20023;BME280;10172;42.054;24.546;2022-07-21T06:28:44;98174.41;;;30.20;36.63
20023;BME280;10172;42.054;24.546;2022-07-21T06:31:10;98177.19;;;30.02;37.62
20023;BME280;10172;42.054;24.546;2022-07-21T06:33:35;98170.84;;;29.66;38.49
20023;BME280;10172;42.054;24.546;2022-07-21T06:36:01;98174.94;;;29.75;38.24
20023;BME280;10172;42.054;24.546;2022-07-21T06:38:26;98174.38;;;29.91;37.77
20023;BME280;10172;42.054;24.546;2022-07-21T06:40:52;98166.78;;;29.50;38.06
20023;BME280;10172;42.054;24.546;2022-07-21T06:43:17;98157.50;;;30.23;36.72
20023;BME280;10172;42.054;24.546;2022-07-21T06:45:43;98166.19;;;30.68;33.77
20023;BME280;10172;42.054;24.546;2022-07-21T06:48:09;98154.88;;;30.76;34.76
20023;BME280;10172;42.054;24.546;2022-07-21T06:50:35;98166.97;;;30.09;35.34
20023;BME280;10172;42.054;24.546;2022-07-21T06:53:01;98165.03;;;30.28;36.67
20023;BME280;10172;42.054;24.546;2022-07-21T06:55:26;98147.09;;;29.96;37.24
20023;BME280;10172;42.054;24.546;2022-07-21T06:57:52;98154.03;;;30.28;35.76
20023;BME280;10172;42.054;24.546;2022-07-21T07:00:18;98155.47;;;30.78;35.77
20023;BME280;10172;42.054;24.546;2022-07-21T07:02:44;98144.91;;;30.34;35.80
20023;BME280;10172;42.054;24.546;2022-07-21T07:05:09;98152.13;;;30.88;33.89
20023;BME280;10172;42.054;24.546;2022-07-21T07:07:35;98133.53;;;30.60;34.66
20023;BME280;10172;42.054;24.546;2022-07-21T07:10:01;98144.03;;;30.22;33.82
20023;BME280;10172;42.054;24.546;2022-07-21T07:12:27;98146.03;;;30.86;32.47
20023;BME280;10172;42.054;24.546;2022-07-21T07:14:53;98135.97;;;31.33;31.47
20023;BME280;10172;42.054;24.546;2022-07-21T07:17:19;98125.06;;;31.73;30.88
20023;BME280;10172;42.054;24.546;2022-07-21T07:19:45;98135.47;;;30.30;32.52
20023;BME280;10172;42.054;24.546;2022-07-21T07:22:11;98132.66;;;30.78;31.59
20023;BME280;10172;42.054;24.546;2022-07-21T07:24:36;98132.84;;;30.95;32.20
20023;BME280;10172;42.054;24.546;2022-07-21T07:27:02;98139.91;;;31.60;31.39
20023;BME280;10172;42.054;24.546;2022-07-21T07:29:27;98133.25;;;32.08;30.41
20023;BME280;10172;42.054;24.546;2022-07-21T07:31:54;98135.44;;;31.82;31.15
20023;BME280;10172;42.054;24.546;2022-07-21T07:34:20;98129.06;;;31.93;31.94
20023;BME280;10172;42.054;24.546;2022-07-21T07:36:45;98123.03;;;32.48;31.26
20023;BME280;10172;42.054;24.546;2022-07-21T07:39:11;98133.75;;;30.89;33.00
20023;BME280;10172;42.054;24.546;2022-07-21T07:41:37;98129.72;;;31.26;32.99
20023;BME280;10172;42.054;24.546;2022-07-21T07:44:03;98135.97;;;31.33;32.29
20023;BME280;10172;42.054;24.546;2022-07-21T07:46:28;98135.66;;;30.76;32.83
20023;BME280;10172;42.054;24.546;2022-07-21T07:48:54;98133.47;;;30.37;33.43
20023;BME280;10172;42.054;24.546;2022-07-21T07:51:20;98138.78;;;30.92;33.18
20023;BME280;10172;42.054;24.546;2022-07-21T07:53:45;98130.56;;;31.50;33.24
20023;BME280;10172;42.054;24.546;2022-07-21T07:56:11;98128.84;;;30.91;33.68
20023;BME280;10172;42.054;24.546;2022-07-21T07:58:36;98129.47;;;31.39;32.79
20023;BME280;10172;42.054;24.546;2022-07-21T08:01:02;98126.50;;;31.29;33.07
20023;BME280;10172;42.054;24.546;2022-07-21T08:03:28;98124.22;;;31.72;32.29
20023;BME280;10172;42.054;24.546;2022-07-21T08:05:55;98123.97;;;32.53;31.36
20023;BME280;10172;42.054;24.546;2022-07-21T08:08:24;98122.19;;;32.92;31.32
20023;BME280;10172;42.054;24.546;2022-07-21T08:10:50;98114.91;;;31.73;32.35
20023;BME280;10172;42.054;24.546;2022-07-21T08:13:16;98110.25;;;31.39;33.50
20023;BME280;10172;42.054;24.546;2022-07-21T08:15:44;98111.78;;;31.81;32.53
20023;BME280;10172;42.054;24.546;2022-07-21T08:18:09;98110.44;;;31.84;32.90
20023;BME280;10172;42.054;24.546;2022-07-21T08:20:35;98115.19;;;32.12;32.76
20023;BME280;10172;42.054;24.546;2022-07-21T08:23:01;98112.22;;;32.02;32.55
20023;BME280;10172;42.054;24.546;2022-07-21T08:25:26;98096.28;;;32.32;32.58
20023;BME280;10172;42.054;24.546;2022-07-21T08:27:52;98107.75;;;31.26;33.14
20023;BME280;10172;42.054;24.546;2022-07-21T08:30:17;98094.31;;;31.76;33.11
20023;BME280;10172;42.054;24.546;2022-07-21T08:32:44;98088.28;;;32.47;31.83
20023;BME280;10172;42.054;24.546;2022-07-21T08:35:10;98097.47;;;31.68;32.36
20023;BME280;10172;42.054;24.546;2022-07-21T08:37:37;98102.31;;;31.77;32.70
20023;BME280;10172;42.054;24.546;2022-07-21T08:40:04;98095.81;;;32.63;31.42
20023;BME280;10172;42.054;24.546;2022-07-21T08:42:30;98098.94;;;32.27;32.48
20023;BME280;10172;42.054;24.546;2022-07-21T08:44:56;98091.19;;;33.02;31.18
20023;BME280;10172;42.054;24.546;2022-07-21T08:47:22;98084.34;;;32.88;31.06
20023;BME280;10172;42.054;24.546;2022-07-21T08:49:48;98081.22;;;32.79;31.03
20023;BME280;10172;42.054;24.546;2022-07-21T08:52:15;98086.63;;;32.29;32.54
20023;BME280;10172;42.054;24.546;2022-07-21T08:54:40;98085.88;;;32.95;31.21
20023;BME280;10172;42.054;24.546;2022-07-21T08:57:05;98085.72;;;33.19;30.82
20023;BME280;10172;42.054;24.546;2022-07-21T08:59:31;98072.75;;;32.69;31.52
20023;BME280;10172;42.054;24.546;2022-07-21T09:01:57;98073.28;;;33.54;30.62
20023;BME280;10172;42.054;24.546;2022-07-21T09:04:30;98064.69;;;34.43;29.51
20023;BME280;10172;42.054;24.546;2022-07-21T09:07:01;98067.97;;;33.69;29.71
20023;BME280;10172;42.054;24.546;2022-07-21T09:09:29;98066.16;;;33.20;30.72
20023;BME280;10172;42.054;24.546;2022-07-21T09:11:56;98064.75;;;33.99;29.65
20023;BME280;10172;42.054;24.546;2022-07-21T09:14:24;98062.56;;;34.01;29.40
20023;BME280;10172;42.054;24.546;2022-07-21T09:16:58;98064.84;;;35.26;28.08
20023;BME280;10172;42.054;24.546;2022-07-21T09:19:27;98054.88;;;35.67;26.96
20023;BME280;10172;42.054;24.546;2022-07-21T09:21:55;98051.44;;;34.45;28.33
20023;BME280;10172;42.054;24.546;2022-07-21T09:24:30;98050.84;;;33.67;30.62
20023;BME280;10172;42.054;24.546;2022-07-21T09:27:06;98057.50;;;33.93;29.92
20023;BME280;10172;42.054;24.546;2022-07-21T09:29:44;98049.50;;;34.72;28.89
20023;BME280;10172;42.054;24.546;2022-07-21T09:34:44;98044.56;;;34.20;30.52
20023;BME280;10172;42.054;24.546;2022-07-21T09:37:09;98042.38;;;34.76;27.82
20023;BME280;10172;42.054;24.546;2022-07-21T09:42:26;98041.41;;;33.85;27.04
20023;BME280;10172;42.054;24.546;2022-07-21T09:44:57;98046.09;;;34.60;26.93
20023;BME280;10172;42.054;24.546;2022-07-21T09:47:26;98043.16;;;33.69;27.75
20023;BME280;10172;42.054;24.546;2022-07-21T09:49:52;98035.47;;;33.12;28.52
20023;BME280;10172;42.054;24.546;2022-07-21T09:52:28;98042.16;;;34.02;28.11
20023;BME280;10172;42.054;24.546;2022-07-21T09:54:58;98034.16;;;34.54;27.46
20023;BME280;10172;42.054;24.546;2022-07-21T09:57:24;98030.53;;;34.85;26.77
20023;BME280;10172;42.054;24.546;2022-07-21T09:59:50;98041.06;;;34.89;26.63
20023;BME280;10172;42.054;24.546;2022-07-21T10:02:21;98035.88;;;34.97;26.89
20023;BME280;10172;42.054;24.546;2022-07-21T10:05:03;98031.69;;;35.83;26.64
20023;BME280;10172;42.054;24.546;2022-07-21T10:07:30;98019.91;;;36.03;25.53
20023;BME280;10172;42.054;24.546;2022-07-21T10:09:57;98023.69;;;35.82;25.36
20023;BME280;10172;42.054;24.546;2022-07-21T10:12:24;98026.84;;;35.54;25.93
20023;BME280;10172;42.054;24.546;2022-07-21T10:14:50;98029.81;;;35.99;25.59
20023;BME280;10172;42.054;24.546;2022-07-21T10:17:16;98014.72;;;35.55;25.82
20023;BME280;10172;42.054;24.546;2022-07-21T10:25:21;97992.22;;;36.28;25.84
20023;BME280;10172;42.054;24.546;2022-07-21T10:30:40;98003.63;;;33.64;27.37
20023;BME280;10172;42.054;24.546;2022-07-21T10:33:05;97994.13;;;35.35;25.98
20023;BME280;10172;42.054;24.546;2022-07-21T10:35:32;97985.84;;;35.35;25.87
20023;BME280;10172;42.054;24.546;2022-07-21T10:38:02;97991.22;;;35.62;25.63
20023;BME280;10172;42.054;24.546;2022-07-21T10:45:38;97981.06;;;35.26;26.46
20023;BME280;10172;42.054;24.546;2022-07-21T10:48:08;97983.66;;;35.48;25.14
20023;BME280;10172;42.054;24.546;2022-07-21T10:50:34;97987.44;;;35.88;25.27
20023;BME280;10172;42.054;24.546;2022-07-21T10:53:03;97979.22;;;36.14;25.71
20023;BME280;10172;42.054;24.546;2022-07-21T10:55:35;97982.81;;;36.34;25.72
20023;BME280;10172;42.054;24.546;2022-07-21T10:58:25;97977.56;;;36.23;25.88
20023;BME280;10172;42.054;24.546;2022-07-21T11:00:53;97975.00;;;35.24;25.79
20023;BME280;10172;42.054;24.546;2022-07-21T11:03:30;97967.50;;;34.77;26.66
20023;BME280;10172;42.054;24.546;2022-07-21T11:08:32;97974.97;;;35.81;26.21
20023;BME280;10172;42.054;24.546;2022-07-21T11:11:11;97960.66;;;36.14;25.52
20023;BME280;10172;42.054;24.546;2022-07-21T11:21:55;97953.88;;;35.60;25.63
20023;BME280;10172;42.054;24.546;2022-07-21T11:24:21;97953.41;;;35.26;26.11
20023;BME280;10172;42.054;24.546;2022-07-21T11:29:30;97958.41;;;36.01;26.06
20023;BME280;10172;42.054;24.546;2022-07-21T11:31:56;97959.00;;;36.84;25.47
20023;BME280;10172;42.054;24.546;2022-07-21T11:34:23;97946.69;;;35.64;26.07
20023;BME280;10172;42.054;24.546;2022-07-21T11:36:58;97941.22;;;35.89;24.96
20023;BME280;10172;42.054;24.546;2022-07-21T11:39:24;97953.47;;;36.84;24.84
20023;BME280;10172;42.054;24.546;2022-07-21T11:41:50;97949.59;;;36.85;24.88
20023;BME280;10172;42.054;24.546;2022-07-21T11:44:23;97950.06;;;35.81;25.85
20023;BME280;10172;42.054;24.546;2022-07-21T11:46:55;97951.53;;;36.19;25.52
20023;BME280;10172;42.054;24.546;2022-07-21T11:49:21;97942.34;;;37.09;24.86
20023;BME280;10172;42.054;24.546;2022-07-21T11:51:54;97949.50;;;37.25;24.77
20023;BME280;10172;42.054;24.546;2022-07-21T11:56:54;97940.19;;;36.55;24.92
20023;BME280;10172;42.054;24.546;2022-07-21T11:59:21;97931.59;;;36.62;24.92
20023;BME280;10172;42.054;24.546;2022-07-21T12:01:55;97917.47;;;36.48;24.95
20023;BME280;10172;42.054;24.546;2022-07-21T12:06:56;97920.25;;;37.58;25.04
20023;BME280;10172;42.054;24.546;2022-07-21T12:09:22;97945.13;;;37.09;24.66
20023;BME280;10172;42.054;24.546;2022-07-21T12:11:48;97927.09;;;36.91;24.95
20023;BME280;10172;42.054;24.546;2022-07-21T12:14:13;97922.78;;;37.54;24.79
20023;BME280;10172;42.054;24.546;2022-07-21T12:16:53;97914.91;;;38.49;23.68
20023;BME280;10172;42.054;24.546;2022-07-21T12:19:19;97909.94;;;37.63;24.34
20023;BME280;10172;42.054;24.546;2022-07-21T12:21:47;97909.06;;;37.14;24.61
20023;BME280;10172;42.054;24.546;2022-07-21T12:24:15;97908.00;;;35.74;25.72
20023;BME280;10172;42.054;24.546;2022-07-21T12:26:40;97897.31;;;35.25;26.76
20023;BME280;10172;42.054;24.546;2022-07-21T12:29:06;97900.00;;;35.87;26.37
20023;BME280;10172;42.054;24.546;2022-07-21T12:31:34;97904.94;;;35.90;26.02
20023;BME280;10172;42.054;24.546;2022-07-21T12:34:14;97907.47;;;36.47;26.85
20023;BME280;10172;42.054;24.546;2022-07-21T12:36:45;97899.13;;;36.98;25.28
20023;BME280;10172;42.054;24.546;2022-07-21T12:39:23;97904.19;;;37.55;25.57
20023;BME280;10172;42.054;24.546;2022-07-21T12:42:09;97892.09;;;37.74;24.71
20023;BME280;10172;42.054;24.546;2022-07-21T12:44:36;97898.25;;;38.49;24.75
20023;BME280;10172;42.054;24.546;2022-07-21T12:47:15;97890.34;;;37.94;24.69
20023;BME280;10172;42.054;24.546;2022-07-21T12:49:59;97894.13;;;38.70;24.64
20023;BME280;10172;42.054;24.546;2022-07-21T12:52:26;97897.88;;;38.56;23.64
20023;BME280;10172;42.054;24.546;2022-07-21T12:54:52;97897.22;;;38.01;24.64
20023;BME280;10172;42.054;24.546;2022-07-21T12:57:18;97891.44;;;38.32;24.34
20023;BME280;10172;42.054;24.546;2022-07-21T12:59:43;97885.97;;;37.88;24.30
20023;BME280;10172;42.054;24.546;2022-07-21T13:02:09;97884.50;;;37.51;24.87
20023;BME280;10172;42.054;24.546;2022-07-21T13:04:34;97882.50;;;36.98;25.36
20023;BME280;10172;42.054;24.546;2022-07-21T13:07:00;97880.94;;;37.85;24.40
20023;BME280;10172;42.054;24.546;2022-07-21T13:09:25;97876.38;;;38.66;24.02
20023;BME280;10172;42.054;24.546;2022-07-21T13:11:51;97880.13;;;37.30;24.82
20023;BME280;10172;42.054;24.546;2022-07-21T13:14:16;97872.31;;;36.53;25.95
20023;BME280;10172;42.054;24.546;2022-07-21T13:16:42;97861.75;;;37.49;25.35
20023;BME280;10172;42.054;24.546;2022-07-21T13:19:07;97874.53;;;37.45;25.28
20023;BME280;10172;42.054;24.546;2022-07-21T13:21:33;97874.25;;;37.86;24.14
20023;BME280;10172;42.054;24.546;2022-07-21T13:23:58;97879.56;;;37.33;24.73
20023;BME280;10172;42.054;24.546;2022-07-21T13:26:24;97868.63;;;36.88;25.19
20023;BME280;10172;42.054;24.546;2022-07-21T13:28:49;97866.25;;;36.21;25.67